createdAt,value
2018-06-19T00:01:36.556Z,5.30
2018-06-19T00:04:05.222Z,5.50
2018-06-19T00:06:33.873Z,5.10
2018-06-19T00:09:02.533Z,5.50
2018-06-19T00:11:31.164Z,5.50
2018-06-19T00:14:00.701Z,5.23
2018-06-19T00:16:29.345Z,5.57
2018-06-19T00:18:59.449Z,4.97
2018-06-19T00:21:30.673Z,6.20
2018-06-19T00:23:59.309Z,5.83
2018-06-19T00:26:28.032Z,5.70
2018-06-19T00:28:56.777Z,5.60
2018-06-19T00:31:25.416Z,5.53
2018-06-19T00:33:54.095Z,6.20
2018-06-19T00:36:22.717Z,5.83
2018-06-19T00:38:51.430Z,6.23
2018-06-19T00:41:20.724Z,6.07
2018-06-19T00:43:49.412Z,5.87
2018-06-19T00:46:19.294Z,6.53
2018-06-19T00:48:47.892Z,6.30
2018-06-19T00:51:16.581Z,6.97
2018-06-19T00:53:45.272Z,7.10
2018-06-19T00:56:25.055Z,6.73
2018-06-19T00:58:53.758Z,7.10
2018-06-19T01:01:22.475Z,7.30
2018-06-19T01:03:51.133Z,7.10
2018-06-19T01:06:19.842Z,6.77
2018-06-19T01:08:48.536Z,7.40
2018-06-19T01:11:17.306Z,7.63
2018-06-19T01:13:45.928Z,7.23
2018-06-19T01:16:14.527Z,7.63
2018-06-19T01:18:43.108Z,7.90
2018-06-19T01:21:11.804Z,8.13
2018-06-19T01:23:40.361Z,7.97
2018-06-19T01:26:09.001Z,8.50
2018-06-19T01:28:37.986Z,7.87
2018-06-19T01:31:06.855Z,7.97
2018-06-19T01:33:35.550Z,8.20
2018-06-19T01:36:04.258Z,8.27
2018-06-19T01:38:32.977Z,8.73
2018-06-19T01:41:01.694Z,7.73
2018-06-19T01:43:30.380Z,7.80
2018-06-19T01:45:59.084Z,7.27
2018-06-19T01:48:27.794Z,7.60
2018-06-19T01:50:56.625Z,7.47
2018-06-19T01:53:25.243Z,7.47
2018-06-19T01:55:53.876Z,7.17
2018-06-19T01:58:23.141Z,7.47
2018-06-19T02:00:51.749Z,7.40
2018-06-19T02:03:20.353Z,7.13
2018-06-19T02:05:48.974Z,7.63
2018-06-19T02:08:17.592Z,7.67
2018-06-19T02:10:46.285Z,7.33
2018-06-19T02:13:15.027Z,7.17
2018-06-19T02:15:43.732Z,7.07
2018-06-19T02:18:12.630Z,7.13
2018-06-19T02:20:41.320Z,7.13
2018-06-19T02:23:09.980Z,6.63
2018-06-19T02:25:38.710Z,6.80
2018-06-19T02:28:07.473Z,6.60
2018-06-19T02:30:36.217Z,6.47
2018-06-19T02:33:04.880Z,7.13
2018-06-19T02:35:33.624Z,7.03
2018-06-19T02:38:02.261Z,6.97
2018-06-19T02:40:31.175Z,7.37
2018-06-19T02:42:59.810Z,6.60
2018-06-19T02:45:28.582Z,7.33
2018-06-19T02:47:57.233Z,6.77
2018-06-19T02:50:25.904Z,7.33
2018-06-19T02:52:54.511Z,7.17
2018-06-19T02:55:23.174Z,7.97
2018-06-19T02:57:51.854Z,8.17
2018-06-19T03:00:20.640Z,8.80
2018-06-19T03:02:49.292Z,7.73
2018-06-19T03:05:17.974Z,8.10
2018-06-19T03:07:46.564Z,6.93
2018-06-19T03:10:15.356Z,8.13
2018-06-19T03:12:44.005Z,7.80
2018-06-19T03:15:12.763Z,7.73
2018-06-19T03:17:41.496Z,7.47
2018-06-19T03:20:10.178Z,7.93
2018-06-19T03:22:39.125Z,7.20
2018-06-19T03:25:09.870Z,7.10
2018-06-19T03:27:38.531Z,7.47
2018-06-19T03:30:07.661Z,7.20
2018-06-19T03:32:36.722Z,7.00
2018-06-19T03:35:05.231Z,6.60
2018-06-19T03:37:33.747Z,6.43
2018-06-19T03:40:02.270Z,6.90
2018-06-19T03:42:30.922Z,6.07
2018-06-19T03:44:59.452Z,6.57
2018-06-19T03:47:28.071Z,7.00
2018-06-19T03:49:56.623Z,7.57
2018-06-19T03:52:25.229Z,7.47
2018-06-19T03:54:53.813Z,6.97
2018-06-19T03:57:22.328Z,8.30
2018-06-19T03:59:51.681Z,7.97
2018-06-19T04:02:20.245Z,7.70
2018-06-19T04:04:48.867Z,8.10
2018-06-19T04:07:17.530Z,8.20
2018-06-19T04:09:46.236Z,8.13
2018-06-19T04:12:14.774Z,7.70
2018-06-19T04:14:43.329Z,7.83
2018-06-19T04:17:19.265Z,7.97
2018-06-19T04:19:48.069Z,7.80
2018-06-19T04:22:16.618Z,8.50
2018-06-19T04:24:45.225Z,7.67
2018-06-19T04:27:13.808Z,7.50
2018-06-19T04:29:42.314Z,7.50
2018-06-19T04:32:11.012Z,7.97
2018-06-19T04:34:39.568Z,7.50
2018-06-19T04:37:08.291Z,7.23
2018-06-19T04:39:36.833Z,8.00
2018-06-19T04:42:05.464Z,7.77
2018-06-19T04:44:34.128Z,8.30
2018-06-19T04:47:03.106Z,7.83
2018-06-19T04:49:31.755Z,8.10
2018-06-19T04:52:00.261Z,7.77
2018-06-19T04:54:28.825Z,7.20
2018-06-19T04:56:57.611Z,6.83
2018-06-19T04:59:26.627Z,7.60
2018-06-19T05:01:55.369Z,7.87
2018-06-19T05:04:24.154Z,7.20
2018-06-19T05:06:52.839Z,7.10
2018-06-19T05:09:21.604Z,7.63
2018-06-19T05:11:50.453Z,6.77
2018-06-19T05:14:19.113Z,7.23
2018-06-19T05:16:47.960Z,7.20
2018-06-19T05:19:16.829Z,7.17
2018-06-19T05:21:45.606Z,6.93
2018-06-19T05:24:14.489Z,6.63
2018-06-19T05:26:43.292Z,6.83
2018-06-19T05:29:11.978Z,6.70
2018-06-19T05:31:40.761Z,6.13
2018-06-19T05:34:09.488Z,5.80
2018-06-19T05:36:38.661Z,5.03
2018-06-19T05:39:10.037Z,4.37
2018-06-19T05:41:38.863Z,4.87
2018-06-19T05:44:08.657Z,5.10
2018-06-19T05:46:38.222Z,5.07
2018-06-19T05:49:07.041Z,4.93
2018-06-19T05:51:35.961Z,4.83
2018-06-19T05:54:04.665Z,4.87
2018-06-19T05:56:33.714Z,5.23
2018-06-19T05:59:02.648Z,4.43
2018-06-19T06:01:31.600Z,5.07
2018-06-19T06:04:00.597Z,4.57
2018-06-19T06:06:29.475Z,4.30
2018-06-19T06:08:58.280Z,4.57
2018-06-19T06:11:27.059Z,4.17
2018-06-19T06:13:55.781Z,4.23
2018-06-19T06:16:24.578Z,4.17
2018-06-19T06:18:53.456Z,4.20
2018-06-19T06:21:22.437Z,4.27
2018-06-19T06:23:51.361Z,5.33
2018-06-19T06:26:20.205Z,4.97
2018-06-19T06:28:48.944Z,5.00
2018-06-19T06:31:18.020Z,4.57
2018-06-19T06:33:46.831Z,4.50
2018-06-19T06:36:15.598Z,4.40
2018-06-19T06:38:44.374Z,4.20
2018-06-19T06:41:13.069Z,4.60
2018-06-19T06:43:41.842Z,4.77
2018-06-19T06:46:10.664Z,4.57
2018-06-19T06:48:39.322Z,4.40
2018-06-19T06:51:08.157Z,4.00
2018-06-19T06:53:37.104Z,4.20
2018-06-19T06:56:06.419Z,3.50
2018-06-19T06:58:35.041Z,3.90
2018-06-19T07:01:04.114Z,4.17
2018-06-19T07:03:32.636Z,4.23
2018-06-19T07:06:01.316Z,4.10
2018-06-19T07:08:30.271Z,4.13
2018-06-19T07:10:58.938Z,3.83
2018-06-19T07:13:27.714Z,3.07
2018-06-19T07:15:56.599Z,2.90
2018-06-19T07:18:25.260Z,3.30
2018-06-19T07:20:53.945Z,3.27
2018-06-19T07:23:22.720Z,3.03
2018-06-19T07:25:51.440Z,3.10
2018-06-19T07:28:20.038Z,2.60
2018-06-19T07:30:48.855Z,2.70
2018-06-19T07:33:17.828Z,2.63
2018-06-19T07:35:46.605Z,2.57
2018-06-19T07:38:15.259Z,3.20
2018-06-19T07:40:44.165Z,2.92
2018-06-19T07:43:12.915Z,3.27
2018-06-19T07:45:41.678Z,2.72
2018-06-19T07:48:10.328Z,2.80
2018-06-19T07:50:39.118Z,2.90
2018-06-19T07:53:07.933Z,2.95
2018-06-19T07:55:36.650Z,2.77
2018-06-19T07:58:05.500Z,2.70
2018-06-19T08:00:34.101Z,2.90
2018-06-19T08:03:02.762Z,2.80
2018-06-19T08:05:31.708Z,3.03
2018-06-19T08:08:00.440Z,2.60
2018-06-19T08:10:29.078Z,2.42
2018-06-19T08:12:57.921Z,2.60
2018-06-19T08:15:26.706Z,2.33
2018-06-19T08:17:55.373Z,2.30
2018-06-19T08:20:24.110Z,2.20
2018-06-19T08:22:53.135Z,1.87
2018-06-19T08:25:21.964Z,2.02
2018-06-19T08:27:50.671Z,2.45
2018-06-19T08:30:19.321Z,2.42
2018-06-19T08:32:48.348Z,2.10
2018-06-19T08:35:17.223Z,1.95
2018-06-19T08:37:45.899Z,2.30
2018-06-19T08:40:14.513Z,2.50
2018-06-19T08:42:43.310Z,2.30
2018-06-19T08:45:12.089Z,2.50
2018-06-19T08:47:41.031Z,2.33
2018-06-19T08:50:10.030Z,2.27
2018-06-19T08:52:38.681Z,2.17
2018-06-19T08:55:07.613Z,1.70
2018-06-19T08:57:36.333Z,1.95
2018-06-19T09:00:05.290Z,1.90
2018-06-19T09:02:33.984Z,1.90
2018-06-19T09:05:02.662Z,2.02
2018-06-19T09:07:31.501Z,1.90
2018-06-19T09:10:00.308Z,1.82
2018-06-19T09:12:28.946Z,1.70
2018-06-19T09:14:57.939Z,1.67
2018-06-19T09:17:26.656Z,1.90
2018-06-19T09:19:55.172Z,1.70
2018-06-19T09:22:23.753Z,1.90
2018-06-19T09:24:52.450Z,1.83
2018-06-19T09:27:20.986Z,2.30
2018-06-19T09:29:49.552Z,1.97
2018-06-19T09:32:18.102Z,2.47
2018-06-19T09:34:46.667Z,2.00
2018-06-19T09:37:15.233Z,2.30
2018-06-19T09:39:43.845Z,1.73
2018-06-19T09:42:12.360Z,2.05
2018-06-19T09:44:40.897Z,1.75
2018-06-19T09:47:09.458Z,1.65
2018-06-19T09:49:37.974Z,1.75
2018-06-19T09:52:06.979Z,1.90
2018-06-19T09:54:35.507Z,2.07
2018-06-19T09:57:04.047Z,1.70
2018-06-19T09:59:32.662Z,1.70
2018-06-19T10:02:01.193Z,2.07
2018-06-19T10:04:29.697Z,2.10
2018-06-19T10:06:58.265Z,1.80
2018-06-19T10:09:26.783Z,1.80
2018-06-19T10:11:55.442Z,1.93
2018-06-19T10:14:23.966Z,2.07
2018-06-19T10:16:52.470Z,1.90
2018-06-19T10:19:21.001Z,1.73
2018-06-19T10:21:49.616Z,2.07
2018-06-19T10:24:18.138Z,2.07
2018-06-19T10:26:46.766Z,2.00
2018-06-19T10:29:15.361Z,2.17
2018-06-19T10:31:43.959Z,1.80
2018-06-19T10:34:12.513Z,1.80
2018-06-19T10:36:41.125Z,1.87
2018-06-19T10:39:10.900Z,1.60
2018-06-19T10:41:39.544Z,1.37
2018-06-19T10:44:08.079Z,1.23
2018-06-19T10:46:36.624Z,1.20
2018-06-19T10:49:05.265Z,1.60
2018-06-19T10:51:33.916Z,1.70
2018-06-19T10:54:02.446Z,1.32
2018-06-19T10:56:30.984Z,1.55
2018-06-19T10:58:59.636Z,1.45
2018-06-19T11:01:28.159Z,1.72
2018-06-19T11:03:56.669Z,1.65
2018-06-19T11:06:25.241Z,1.63
2018-06-19T11:08:53.783Z,1.30
2018-06-19T11:11:22.338Z,1.80
2018-06-19T11:13:50.890Z,1.40
2018-06-19T11:16:19.518Z,1.40
2018-06-19T11:18:48.095Z,1.50
2018-06-19T11:21:16.676Z,1.40
2018-06-19T11:23:45.220Z,1.10
2018-06-19T11:26:14.225Z,2.30
2018-06-19T11:28:42.917Z,1.80
2018-06-19T11:31:11.521Z,1.47
2018-06-19T11:33:40.076Z,12.17
2018-06-19T11:36:08.681Z,1.37
2018-06-19T11:38:37.217Z,1.60
2018-06-19T11:41:05.776Z,2.47
2018-06-19T11:43:34.327Z,1.50
2018-06-19T11:46:02.924Z,1.70
2018-06-19T11:48:31.447Z,1.57
2018-06-19T11:50:59.996Z,1.63
2018-06-19T11:53:28.501Z,6.83
2018-06-19T11:55:57.068Z,1.60
2018-06-19T11:58:25.606Z,1.43
2018-06-19T12:00:54.659Z,1.40
2018-06-19T12:03:23.208Z,1.60
2018-06-19T12:05:51.725Z,1.60
2018-06-19T12:08:20.229Z,1.40
2018-06-19T12:10:48.724Z,1.70
2018-06-19T12:13:17.357Z,1.60
2018-06-19T12:15:45.815Z,1.70
2018-06-19T12:18:14.437Z,1.77
2018-06-19T12:20:43.001Z,1.83
2018-06-19T12:23:11.493Z,1.50
2018-06-19T12:25:40.013Z,2.30
2018-06-19T12:28:08.539Z,1.70
2018-06-19T12:30:37.051Z,1.80
2018-06-19T12:33:05.566Z,1.20
2018-06-19T12:35:34.085Z,1.60
2018-06-19T12:38:02.663Z,1.60
2018-06-19T12:40:32.117Z,2.37
2018-06-19T12:43:00.771Z,7.63
2018-06-19T12:45:29.299Z,1.47
2018-06-19T12:47:57.803Z,1.90
2018-06-19T12:51:43.472Z,24.07
2018-06-19T12:54:28.854Z,1.57
2018-06-19T12:56:57.377Z,1.60
2018-06-19T12:59:25.922Z,1.40
2018-06-19T13:01:54.468Z,1.80
2018-06-19T13:04:34.094Z,1.83
2018-06-19T13:07:03.262Z,1.70
2018-06-19T13:09:31.798Z,1.80
2018-06-19T13:12:00.356Z,1.60
2018-06-19T13:14:38.180Z,1.90
2018-06-19T13:17:17.920Z,1.70
2018-06-19T13:19:57.509Z,1.60
2018-06-19T13:22:26.049Z,1.67
2018-06-19T13:24:54.611Z,1.50
2018-06-19T13:27:23.176Z,4.57
2018-06-19T13:30:10.224Z,1.97
2018-06-19T13:32:39.307Z,1.53
2018-06-19T13:35:07.816Z,1.60
2018-06-19T13:37:36.396Z,1.80
2018-06-19T13:41:18.939Z,1.50
2018-06-19T13:43:59.897Z,1.67
2018-06-19T13:46:28.430Z,4.70
2018-06-19T13:48:56.955Z,1.43
2018-06-19T13:51:25.518Z,1.50
2018-06-19T13:53:54.086Z,1.70
2018-06-19T13:57:47.776Z,1.90
2018-06-19T14:00:18.666Z,1.60
2018-06-19T14:02:47.233Z,1.73
2018-06-19T14:05:17.015Z,1.50
2018-06-19T14:08:00.108Z,1.80
2018-06-19T14:10:39.838Z,1.40
2018-06-19T14:13:08.442Z,1.63
2018-06-19T14:15:45.195Z,1.50
2018-06-19T14:18:14.681Z,1.70
2018-06-19T14:20:43.545Z,1.50
2018-06-19T14:23:12.465Z,1.50
2018-06-19T14:25:41.115Z,2.03
2018-06-19T14:28:09.777Z,1.80
2018-06-19T14:30:38.329Z,1.60
2018-06-19T14:33:06.986Z,1.60
2018-06-19T14:35:35.552Z,1.70
2018-06-19T14:38:04.088Z,1.87
2018-06-19T14:40:32.669Z,1.80
2018-06-19T14:43:01.217Z,1.40
2018-06-19T14:45:29.793Z,1.63
2018-06-19T14:47:58.380Z,1.60
2018-06-19T14:50:26.916Z,1.80
2018-06-19T14:52:55.463Z,1.73
2018-06-19T14:55:24.070Z,1.60
2018-06-19T14:57:52.594Z,1.70
2018-06-19T15:00:21.157Z,1.50
2018-06-19T15:02:49.698Z,1.80
2018-06-19T15:05:18.226Z,1.60
2018-06-19T15:07:54.077Z,1.43
2018-06-19T15:10:22.784Z,1.80
2018-06-19T15:12:51.418Z,1.67
2018-06-19T15:15:20.021Z,1.50
2018-06-19T15:17:48.581Z,1.70
2018-06-19T15:20:17.297Z,1.57
2018-06-19T15:22:45.854Z,1.70
2018-06-19T15:25:14.441Z,1.67
2018-06-19T15:27:42.974Z,1.60
2018-06-19T15:30:11.557Z,1.70
2018-06-19T15:32:40.144Z,1.67
2018-06-19T15:35:08.644Z,1.73
2018-06-19T15:37:37.807Z,1.77
2018-06-19T15:40:06.497Z,1.70
2018-06-19T15:42:35.017Z,1.60
2018-06-19T15:45:03.603Z,1.80
2018-06-19T15:47:32.186Z,1.80
2018-06-19T15:50:00.730Z,1.60
2018-06-19T15:52:29.294Z,1.63
2018-06-19T15:54:57.885Z,1.70
2018-06-19T15:57:26.543Z,1.40
2018-06-19T15:59:55.089Z,1.50
2018-06-19T16:02:23.597Z,1.60
2018-06-19T16:04:52.142Z,1.70
2018-06-19T16:07:20.822Z,1.77
2018-06-19T16:09:49.378Z,1.70
2018-06-19T16:12:17.882Z,1.50
2018-06-19T16:14:46.426Z,1.40
2018-06-19T16:17:14.932Z,1.40
2018-06-19T16:19:43.448Z,1.97
2018-06-19T16:22:12.005Z,1.80
2018-06-19T16:24:40.553Z,1.50
2018-06-19T16:27:09.089Z,1.40
2018-06-19T16:29:37.683Z,1.50
2018-06-19T16:32:06.262Z,1.37
2018-06-19T16:34:35.456Z,1.50
2018-06-19T16:37:04.065Z,1.60
2018-06-19T16:39:32.703Z,1.70
2018-06-19T16:42:01.252Z,3.20
2018-06-19T16:44:29.903Z,1.80
2018-06-19T16:46:58.453Z,2.30
2018-06-19T16:49:26.973Z,4.10
2018-06-19T16:51:55.567Z,2.30
2018-06-19T16:54:24.097Z,2.00
2018-06-19T16:56:52.620Z,1.70
2018-06-19T16:59:21.170Z,2.03
2018-06-19T17:01:49.708Z,1.97
2018-06-19T17:04:18.261Z,1.80
2018-06-19T17:06:46.906Z,1.87
2018-06-19T17:09:15.442Z,1.73
2018-06-19T17:11:43.993Z,1.87
2018-06-19T17:14:12.598Z,2.10
2018-06-19T17:16:41.155Z,1.67
2018-06-19T17:19:09.726Z,2.27
2018-06-19T17:21:38.297Z,2.00
2018-06-19T17:24:06.866Z,1.80
2018-06-19T17:26:35.399Z,1.60
2018-06-19T17:29:03.969Z,1.47
2018-06-19T17:31:32.523Z,1.60
2018-06-19T17:34:01.078Z,1.90
2018-06-19T17:36:29.644Z,1.63
2018-06-19T17:38:58.221Z,1.97
2018-06-19T17:41:26.768Z,1.90
2018-06-19T17:43:55.381Z,1.70
2018-06-19T17:46:23.959Z,1.47
2018-06-19T17:48:52.498Z,1.70
2018-06-19T17:51:21.037Z,1.63
2018-06-19T17:53:49.583Z,1.57
2018-06-19T17:56:18.123Z,1.53
2018-06-19T17:58:46.664Z,1.77
2018-06-19T18:01:15.217Z,1.50
2018-06-19T18:03:43.785Z,1.50
2018-06-19T18:06:12.357Z,1.80
2018-06-19T18:08:41.020Z,1.70
2018-06-19T18:11:09.524Z,1.73
2018-06-19T18:13:38.111Z,1.60
2018-06-19T18:16:06.764Z,1.80
2018-06-19T18:18:35.303Z,1.70
2018-06-19T18:21:03.827Z,1.70
2018-06-19T18:23:32.618Z,1.80
2018-06-19T18:26:01.454Z,1.77
2018-06-19T18:28:30.197Z,1.90
2018-06-19T18:30:58.930Z,1.80
2018-06-19T18:33:27.725Z,2.00
2018-06-19T18:35:56.559Z,1.80
2018-06-19T18:38:26.139Z,1.70
2018-06-19T18:40:55.026Z,2.03
2018-06-19T18:43:23.919Z,1.80
2018-06-19T18:45:52.574Z,1.40
2018-06-19T18:48:21.440Z,1.70
2018-06-19T18:50:50.456Z,2.10
2018-06-19T18:53:19.156Z,1.90
2018-06-19T18:55:47.826Z,1.90
2018-06-19T18:58:16.603Z,1.80
2018-06-19T19:00:45.360Z,2.20
2018-06-19T19:03:14.050Z,2.43
2018-06-19T19:05:42.887Z,1.70
2018-06-19T19:08:16.761Z,2.00
2018-06-19T19:10:54.129Z,1.87
2018-06-19T19:13:24.043Z,2.03
2018-06-19T19:15:58.188Z,2.17
2018-06-19T19:18:32.061Z,1.87
2018-06-19T19:21:01.894Z,2.20
2018-06-19T19:23:31.198Z,2.20
2018-06-19T19:26:00.108Z,1.80
2018-06-19T19:28:34.413Z,2.00
2018-06-19T19:31:03.247Z,1.87
2018-06-19T19:33:32.026Z,2.00
2018-06-19T19:36:00.840Z,2.00
2018-06-19T19:38:35.525Z,2.03
2018-06-19T19:41:04.317Z,2.07
2018-06-19T19:43:33.309Z,1.90
2018-06-19T19:46:02.100Z,2.30
2018-06-19T19:48:36.837Z,2.10
2018-06-19T19:51:05.797Z,1.90
2018-06-19T19:53:34.608Z,2.20
2018-06-19T19:56:08.539Z,2.10
2018-06-19T19:58:42.456Z,2.10
2018-06-19T20:01:11.339Z,2.10
2018-06-19T20:03:40.183Z,2.07
2018-06-19T20:06:09.034Z,2.07
2018-06-19T20:08:37.938Z,2.00
2018-06-19T20:11:06.910Z,2.10
2018-06-19T20:13:35.722Z,2.10
2018-06-19T20:16:04.553Z,1.90
2018-06-19T20:18:33.401Z,2.00
2018-06-19T20:21:02.147Z,2.17
2018-06-19T20:23:30.799Z,2.00
2018-06-19T20:25:59.433Z,2.40
2018-06-19T20:28:28.124Z,2.50
2018-06-19T20:30:56.706Z,2.00
2018-06-19T20:33:25.348Z,2.10
2018-06-19T20:35:54.533Z,2.30
2018-06-19T20:38:23.190Z,2.10
2018-06-19T20:40:51.797Z,2.30
2018-06-19T20:43:20.448Z,2.00
2018-06-19T20:45:49.168Z,2.13
2018-06-19T20:48:17.821Z,2.53
2018-06-19T20:50:46.508Z,2.17
2018-06-19T20:53:15.225Z,2.30
2018-06-19T20:55:44.091Z,2.27
2018-06-19T20:58:12.733Z,2.57
2018-06-19T21:00:41.548Z,2.20
2018-06-19T21:03:10.306Z,2.27
2018-06-19T21:05:38.945Z,2.20
2018-06-19T21:08:08.505Z,2.47
2018-06-19T21:10:37.221Z,2.20
2018-06-19T21:13:06.143Z,2.37
2018-06-19T21:15:35.460Z,2.10
2018-06-19T21:18:04.253Z,2.27
2018-06-19T21:20:33.106Z,2.37
2018-06-19T21:23:01.884Z,2.80
2018-06-19T21:25:30.565Z,2.23
2018-06-19T21:27:59.196Z,2.40
2018-06-19T21:30:27.872Z,2.37
2018-06-19T21:32:56.500Z,2.60
2018-06-19T21:35:25.341Z,2.47
2018-06-19T21:37:54.023Z,2.40
2018-06-19T21:40:22.962Z,2.70
2018-06-19T21:42:51.584Z,2.57
2018-06-19T21:45:20.209Z,2.63
2018-06-19T21:47:48.894Z,2.40
2018-06-19T21:50:17.543Z,2.63
2018-06-19T21:52:46.410Z,3.07
2018-06-19T21:55:15.285Z,3.30
2018-06-19T21:57:44.236Z,3.20
2018-06-19T22:00:13.002Z,3.80
2018-06-19T22:02:41.705Z,3.73
2018-06-19T22:05:10.483Z,3.90
2018-06-19T22:07:39.359Z,4.00
2018-06-19T22:10:08.075Z,3.90
2018-06-19T22:12:36.736Z,3.57
2018-06-19T22:15:05.593Z,3.57
2018-06-19T22:17:34.359Z,3.80
2018-06-19T22:20:03.029Z,2.90
2018-06-19T22:22:31.867Z,3.60
2018-06-19T22:25:00.425Z,3.20
2018-06-19T22:27:29.089Z,3.93
2018-06-19T22:29:57.720Z,3.67
2018-06-19T22:32:26.317Z,3.33
2018-06-19T22:34:55.149Z,3.50
2018-06-19T22:37:23.778Z,3.70
2018-06-19T22:39:52.408Z,3.63
2018-06-19T22:42:21.179Z,4.00
2018-06-19T22:44:49.824Z,4.20
2018-06-19T22:47:18.501Z,3.80
2018-06-19T22:49:47.244Z,3.73
2018-06-19T22:52:15.901Z,3.73
2018-06-19T22:54:44.784Z,3.87
2018-06-19T22:57:13.543Z,4.00
2018-06-19T22:59:42.261Z,3.80
2018-06-19T23:02:11.023Z,3.37
2018-06-19T23:04:39.787Z,3.60
2018-06-19T23:07:08.422Z,3.50
2018-06-19T23:09:37.013Z,3.70
2018-06-19T23:12:05.742Z,3.73
2018-06-19T23:14:34.631Z,3.53
2018-06-19T23:17:03.465Z,3.97
2018-06-19T23:19:32.033Z,3.93
2018-06-19T23:22:00.814Z,3.53
2018-06-19T23:24:29.517Z,3.87
2018-06-19T23:26:58.271Z,3.70
2018-06-19T23:29:26.945Z,3.50
2018-06-19T23:31:55.676Z,3.57
2018-06-19T23:34:24.301Z,3.80
2018-06-19T23:36:53.060Z,4.27
2018-06-19T23:39:21.725Z,4.10
2018-06-19T23:41:50.256Z,3.50
2018-06-19T23:44:18.863Z,4.17
2018-06-19T23:46:47.418Z,4.23
2018-06-19T23:49:16.051Z,4.47
2018-06-19T23:51:44.781Z,5.47
2018-06-19T23:54:13.632Z,4.87
2018-06-19T23:56:42.540Z,4.37
2018-06-19T23:59:11.309Z,4.37
